sensor_id;sensor_type;location;lat;lon;timestamp;pressure;altitude;pressure_sealevel;temperature;humidity
10476;BME280;26166;48.264;11.436;2023-03-21T00:00:31;96429.72;;;10.95;58.01
10476;BME280;26166;48.264;11.436;2023-03-21T00:03:32;96424.47;;;10.95;58.21
10476;BME280;26166;48.264;11.436;2023-03-21T00:06:32;96423.66;;;10.94;57.81
10476;BME280;26166;48.264;11.436;2023-03-21T00:09:33;96420.84;;;10.96;58.14
10476;BME280;26166;48.264;11.436;2023-03-21T00:12:33;96414.78;;;10.95;57.89
10476;BME280;26166;48.264;11.436;2023-03-21T00:15:36;96419.22;;;10.95;58.15
10476;BME280;26166;48.264;11.436;2023-03-21T00:18:49;96419.22;;;10.95;57.75
10476;BME280;26166;48.264;11.436;2023-03-21T00:21:51;96407.72;;;10.96;57.66
10476;BME280;26166;48.264;11.436;2023-03-21T00:24:52;96413.97;;;10.95;57.79
10476;BME280;26166;48.264;11.436;2023-03-21T00:27:52;96402.63;;;10.94;58.12
10476;BME280;26166;48.264;11.436;2023-03-21T00:30:56;96400.81;;;10.95;57.78
10476;BME280;26166;48.264;11.436;2023-03-21T00:33:56;96408.69;;;10.95;57.96
10476;BME280;26166;48.264;11.436;2023-03-21T00:36:56;96411.34;;;10.95;58.16
10476;BME280;26166;48.264;11.436;2023-03-21T00:39:57;96404.25;;;10.95;58.26
10476;BME280;26166;48.264;11.436;2023-03-21T00:42:57;96392.25;;;10.93;58.12
10476;BME280;26166;48.264;11.436;2023-03-21T00:45:57;96400.16;;;10.93;58.31
10476;BME280;26166;48.264;11.436;2023-03-21T00:48:58;96393.44;;;10.90;58.46
10476;BME280;26166;48.264;11.436;2023-03-21T00:51:59;96391.63;;;10.91;58.45
10476;BME280;26166;48.264;11.436;2023-03-21T00:54:59;96381.09;;;10.91;58.48
10476;BME280;26166;48.264;11.436;2023-03-21T00:58:00;96379.47;;;10.90;58.19
10476;BME280;26166;48.264;11.436;2023-03-21T01:01:00;96376.84;;;10.90;58.21
10476;BME280;26166;48.264;11.436;2023-03-21T01:04:01;96376.84;;;10.90;58.40
10476;BME280;26166;48.264;11.436;2023-03-21T01:07:06;96371.41;;;10.91;58.08
10476;BME280;26166;48.264;11.436;2023-03-21T01:10:06;96370.59;;;10.91;57.97
10476;BME280;26166;48.264;11.436;2023-03-21T01:13:08;96373.41;;;10.89;58.31
10476;BME280;26166;48.264;11.436;2023-03-21T01:16:08;96368.97;;;10.90;58.43
10476;BME280;26166;48.264;11.436;2023-03-21T01:19:10;96377.47;;;10.92;58.42
10476;BME280;26166;48.264;11.436;2023-03-21T01:22:11;96372.91;;;10.94;58.45
10476;BME280;26166;48.264;11.436;2023-03-21T01:25:11;96368.28;;;10.96;57.97
10476;BME280;26166;48.264;11.436;2023-03-21T01:28:11;96368.28;;;10.96;58.02
10476;BME280;26166;48.264;11.436;2023-03-21T01:31:12;96368.28;;;10.96;58.41
10476;BME280;26166;48.264;11.436;2023-03-21T01:34:12;96364.84;;;10.95;58.17
10476;BME280;26166;48.264;11.436;2023-03-21T01:37:12;96366.66;;;10.95;58.50
10476;BME280;26166;48.264;11.436;2023-03-21T01:40:17;96358.75;;;10.95;58.02
10476;BME280;26166;48.264;11.436;2023-03-21T01:43:25;96361.41;;;10.95;58.24
10476;BME280;26166;48.264;11.436;2023-03-21T01:49:43;96353.66;;;10.93;58.14
10476;BME280;26166;48.264;11.436;2023-03-21T01:52:44;96355.47;;;10.93;58.48
10476;BME280;26166;48.264;11.436;2023-03-21T01:55:48;96350.38;;;10.91;58.57
10476;BME280;26166;48.264;11.436;2023-03-21T01:58:50;96359.09;;;10.92;58.23
10476;BME280;26166;48.264;11.436;2023-03-21T02:01:51;96355.47;;;10.93;58.13
10476;BME280;26166;48.264;11.436;2023-03-21T02:04:52;96342.31;;;10.93;58.32
10476;BME280;26166;48.264;11.436;2023-03-21T02:07:55;96346.63;;;10.94;58.19
10476;BME280;26166;48.264;11.436;2023-03-21T02:10:55;96341.38;;;10.94;58.08
10476;BME280;26166;48.264;11.436;2023-03-21T02:13:56;96341.19;;;10.95;58.23
10476;BME280;26166;48.264;11.436;2023-03-21T02:17:03;96344.63;;;10.96;58.24
10476;BME280;26166;48.264;11.436;2023-03-21T02:20:10;96342.00;;;10.96;58.39
10476;BME280;26166;48.264;11.436;2023-03-21T02:26:36;96332.63;;;10.93;58.34
10476;BME280;26166;48.264;11.436;2023-03-21T02:29:56;96333.47;;;10.94;58.60
10476;BME280;26166;48.264;11.436;2023-03-21T02:39:12;96335.25;;;10.93;58.33
10476;BME280;26166;48.264;11.436;2023-03-21T02:42:21;96333.47;;;10.94;58.19
10476;BME280;26166;48.264;11.436;2023-03-21T02:45:24;96336.94;;;10.94;58.27
10476;BME280;26166;48.264;11.436;2023-03-21T02:48:46;96337.06;;;10.93;58.59
10476;BME280;26166;48.264;11.436;2023-03-21T02:51:49;96340.50;;;10.93;58.60
10476;BME280;26166;48.264;11.436;2023-03-21T02:54:50;96340.50;;;10.93;58.67
10476;BME280;26166;48.264;11.436;2023-03-21T02:57:51;96332.63;;;10.93;58.30
10476;BME280;26166;48.264;11.436;2023-03-21T03:00:53;96331.81;;;10.93;58.35
10476;BME280;26166;48.264;11.436;2023-03-21T03:03:55;96334.78;;;10.90;58.91
10476;BME280;26166;48.264;11.436;2023-03-21T03:19:32;96330.50;;;10.89;58.77
10476;BME280;26166;48.264;11.436;2023-03-21T03:22:41;96327.72;;;10.90;59.10
10476;BME280;26166;48.264;11.436;2023-03-21T03:25:51;96323.28;;;10.91;58.82
10476;BME280;26166;48.264;11.436;2023-03-21T03:28:54;96317.03;;;10.92;58.70
10476;BME280;26166;48.264;11.436;2023-03-21T03:31:57;96319.66;;;10.92;58.94
10476;BME280;26166;48.264;11.436;2023-03-21T03:34:59;96318.03;;;10.91;58.67
10476;BME280;26166;48.264;11.436;2023-03-21T03:38:00;96323.28;;;10.91;59.11
10476;BME280;26166;48.264;11.436;2023-03-21T03:41:03;96323.28;;;10.91;58.71
10476;BME280;26166;48.264;11.436;2023-03-21T03:44:07;96325.75;;;10.92;58.92
10476;BME280;26166;48.264;11.436;2023-03-21T03:47:08;96322.28;;;10.92;59.02
10476;BME280;26166;48.264;11.436;2023-03-21T03:50:18;96319.66;;;10.92;59.00
10476;BME280;26166;48.264;11.436;2023-03-21T03:53:24;96318.03;;;10.91;58.98
10476;BME280;26166;48.264;11.436;2023-03-21T03:56:27;96312.78;;;10.91;58.68
10476;BME280;26166;48.264;11.436;2023-03-21T03:59:27;96318.84;;;10.91;58.73
10476;BME280;26166;48.264;11.436;2023-03-21T04:02:28;96311.78;;;10.92;59.06
10476;BME280;26166;48.264;11.436;2023-03-21T04:05:29;96318.69;;;10.93;58.85
10476;BME280;26166;48.264;11.436;2023-03-21T04:08:29;96323.94;;;10.93;59.00
10476;BME280;26166;48.264;11.436;2023-03-21T04:11:29;96322.97;;;10.94;58.68
10476;BME280;26166;48.264;11.436;2023-03-21T04:14:30;96317.72;;;10.94;58.96
10476;BME280;26166;48.264;11.436;2023-03-21T04:17:30;96317.72;;;10.94;58.66
10476;BME280;26166;48.264;11.436;2023-03-21T04:20:32;96319.34;;;10.95;58.91
10476;BME280;26166;48.264;11.436;2023-03-21T04:23:32;96311.47;;;10.95;58.88
10476;BME280;26166;48.264;11.436;2023-03-21T04:26:34;96312.44;;;10.94;58.97
10476;BME280;26166;48.264;11.436;2023-03-21T04:29:35;96310.66;;;10.94;58.62
10476;BME280;26166;48.264;11.436;2023-03-21T04:32:35;96308.84;;;10.95;58.69
10476;BME280;26166;48.264;11.436;2023-03-21T04:35:38;96309.16;;;10.92;58.85
10476;BME280;26166;48.264;11.436;2023-03-21T04:38:38;96302.25;;;10.91;59.34
10476;BME280;26166;48.264;11.436;2023-03-21T04:41:39;96298.97;;;10.89;59.28
10476;BME280;26166;48.264;11.436;2023-03-21T04:44:40;96294.72;;;10.88;59.26
10476;BME280;26166;48.264;11.436;2023-03-21T04:47:40;96308.84;;;10.86;59.47
10476;BME280;26166;48.264;11.436;2023-03-21T04:50:41;96308.66;;;10.88;59.18
10476;BME280;26166;48.264;11.436;2023-03-21T04:53:41;96301.94;;;10.85;59.17
10476;BME280;26166;48.264;11.436;2023-03-21T04:56:44;96303.75;;;10.85;59.53
10476;BME280;26166;48.264;11.436;2023-03-21T04:59:44;96306.38;;;10.85;59.29
10476;BME280;26166;48.264;11.436;2023-03-21T05:02:45;96310.66;;;10.86;59.20
10476;BME280;26166;48.264;11.436;2023-03-21T05:05:46;96314.72;;;10.89;59.54
10476;BME280;26166;48.264;11.436;2023-03-21T05:08:46;96309.34;;;10.90;59.50
10476;BME280;26166;48.264;11.436;2023-03-21T05:11:47;96299.97;;;10.88;59.80
10476;BME280;26166;48.264;11.436;2023-03-21T05:14:47;96299.16;;;10.87;59.88
10476;BME280;26166;48.264;11.436;2023-03-21T05:17:48;96307.84;;;10.88;60.05
10476;BME280;26166;48.264;11.436;2023-03-21T05:20:48;96307.03;;;10.87;59.86
10476;BME280;26166;48.264;11.436;2023-03-21T05:23:53;96305.41;;;10.86;59.56
10476;BME280;26166;48.264;11.436;2023-03-21T05:26:53;96301.78;;;10.87;59.66
10476;BME280;26166;48.264;11.436;2023-03-21T05:29:55;96301.78;;;10.87;59.52
10476;BME280;26166;48.264;11.436;2023-03-21T05:32:55;96304.22;;;10.89;60.03
10476;BME280;26166;48.264;11.436;2023-03-21T05:35:55;96303.59;;;10.86;60.08
10476;BME280;26166;48.264;11.436;2023-03-21T05:38:55;96303.41;;;10.88;60.25
10476;BME280;26166;48.264;11.436;2023-03-21T05:41:56;96307.03;;;10.87;60.16
10476;BME280;26166;48.264;11.436;2023-03-21T05:44:56;96306.22;;;10.86;59.92
10476;BME280;26166;48.264;11.436;2023-03-21T05:47:56;96308.03;;;10.86;60.01
10476;BME280;26166;48.264;11.436;2023-03-21T05:50:56;96315.91;;;10.86;60.30
10476;BME280;26166;48.264;11.436;2023-03-21T05:53:57;96316.72;;;10.86;59.99
10476;BME280;26166;48.264;11.436;2023-03-21T05:56:57;96321.97;;;10.86;60.05
10476;BME280;26166;48.264;11.436;2023-03-21T05:59:57;96327.25;;;10.86;60.43
10476;BME280;26166;48.264;11.436;2023-03-21T06:02:57;96327.25;;;10.86;60.15
10476;BME280;26166;48.264;11.436;2023-03-21T06:05:57;96324.59;;;10.86;60.34
10476;BME280;26166;48.264;11.436;2023-03-21T06:08:58;96329.69;;;10.88;60.64
10476;BME280;26166;48.264;11.436;2023-03-21T06:11:58;96330.50;;;10.89;60.52
10476;BME280;26166;48.264;11.436;2023-03-21T06:14:59;96328.88;;;10.88;60.41
10476;BME280;26166;48.264;11.436;2023-03-21T06:18:00;96326.91;;;10.90;60.23
10476;BME280;26166;48.264;11.436;2023-03-21T06:21:00;96329.69;;;10.88;60.28
10476;BME280;26166;48.264;11.436;2023-03-21T06:24:00;96329.69;;;10.88;60.36
10476;BME280;26166;48.264;11.436;2023-03-21T06:27:00;96330.50;;;10.89;60.41
10476;BME280;26166;48.264;11.436;2023-03-21T06:30:01;96328.72;;;10.89;60.44
10476;BME280;26166;48.264;11.436;2023-03-21T06:33:01;96333.13;;;10.89;60.56
10476;BME280;26166;48.264;11.436;2023-03-21T06:36:01;96340.06;;;10.90;60.42
10476;BME280;26166;48.264;11.436;2023-03-21T06:39:01;96336.59;;;10.89;60.20
10476;BME280;26166;48.264;11.436;2023-03-21T06:42:02;96343.50;;;10.90;60.09
10476;BME280;26166;48.264;11.436;2023-03-21T06:45:02;96340.06;;;10.90;60.27
10476;BME280;26166;48.264;11.436;2023-03-21T06:48:02;96335.75;;;10.89;60.47
10476;BME280;26166;48.264;11.436;2023-03-21T06:51:03;96343.00;;;10.86;60.31
10476;BME280;26166;48.264;11.436;2023-03-21T06:54:03;96343.19;;;10.85;60.11
10476;BME280;26166;48.264;11.436;2023-03-21T06:57:04;96339.06;;;10.82;60.45
10476;BME280;26166;48.264;11.436;2023-03-21T07:00:04;96345.13;;;10.83;60.76
10476;BME280;26166;48.264;11.436;2023-03-21T07:03:04;96341.69;;;10.82;60.48
10476;BME280;26166;48.264;11.436;2023-03-21T07:06:06;96339.06;;;10.82;60.64
10476;BME280;26166;48.264;11.436;2023-03-21T07:09:07;96336.44;;;10.82;60.38
10476;BME280;26166;48.264;11.436;2023-03-21T07:12:07;96339.06;;;10.82;60.77
10476;BME280;26166;48.264;11.436;2023-03-21T07:15:08;96340.69;;;10.83;60.76
10476;BME280;26166;48.264;11.436;2023-03-21T07:18:08;96347.59;;;10.84;60.39
10476;BME280;26166;48.264;11.436;2023-03-21T07:21:09;96348.59;;;10.83;60.72
10476;BME280;26166;48.264;11.436;2023-03-21T07:24:09;96346.78;;;10.84;60.34
10476;BME280;26166;48.264;11.436;2023-03-21T07:27:09;96344.97;;;10.84;60.39
10476;BME280;26166;48.264;11.436;2023-03-21T07:30:10;96347.44;;;10.86;60.26
10476;BME280;26166;48.264;11.436;2023-03-21T07:33:11;96345.63;;;10.86;60.64
10476;BME280;26166;48.264;11.436;2023-03-21T07:36:12;96344.00;;;10.85;60.19
10476;BME280;26166;48.264;11.436;2023-03-21T07:39:14;96349.91;;;10.88;60.53
10476;BME280;26166;48.264;11.436;2023-03-21T07:42:14;96349.91;;;10.88;60.21
10476;BME280;26166;48.264;11.436;2023-03-21T07:45:14;96356.78;;;10.89;60.27
10476;BME280;26166;48.264;11.436;2023-03-21T07:48:19;96351.53;;;10.89;60.31
10476;BME280;26166;48.264;11.436;2023-03-21T07:51:20;96350.72;;;10.88;60.56
10476;BME280;26166;48.264;11.436;2023-03-21T07:54:20;96350.72;;;10.88;60.44
10476;BME280;26166;48.264;11.436;2023-03-21T07:57:22;96353.34;;;10.88;60.59
10476;BME280;26166;48.264;11.436;2023-03-21T08:00:22;96348.91;;;10.89;60.64
10476;BME280;26166;48.264;11.436;2023-03-21T08:03:22;96338.38;;;10.89;60.32
10476;BME280;26166;48.264;11.436;2023-03-21T08:06:23;96349.56;;;10.91;60.55
10476;BME280;26166;48.264;11.436;2023-03-21T08:09:26;96346.13;;;10.90;60.26
10476;BME280;26166;48.264;11.436;2023-03-21T08:12:26;96337.44;;;10.90;60.25
10476;BME280;26166;48.264;11.436;2023-03-21T08:15:26;96340.69;;;10.92;60.28
10476;BME280;26166;48.264;11.436;2023-03-21T08:18:26;96334.63;;;10.91;60.55
10476;BME280;26166;48.264;11.436;2023-03-21T08:21:27;96334.63;;;10.91;60.48
10476;BME280;26166;48.264;11.436;2023-03-21T08:24:27;96346.75;;;10.92;60.40
10476;BME280;26166;48.264;11.436;2023-03-21T08:27:27;96335.44;;;10.92;60.50
10476;BME280;26166;48.264;11.436;2023-03-21T08:30:28;96338.06;;;10.92;60.06
10476;BME280;26166;48.264;11.436;2023-03-21T08:33:28;96340.69;;;10.92;60.36
10476;BME280;26166;48.264;11.436;2023-03-21T08:36:29;96330.84;;;10.94;60.16
10476;BME280;26166;48.264;11.436;2023-03-21T08:39:30;96328.22;;;10.94;60.44
10476;BME280;26166;48.264;11.436;2023-03-21T08:42:30;96328.22;;;10.94;60.30
10476;BME280;26166;48.264;11.436;2023-03-21T08:45:30;96337.75;;;10.95;60.04
10476;BME280;26166;48.264;11.436;2023-03-21T08:48:31;96331.66;;;10.94;60.20
10476;BME280;26166;48.264;11.436;2023-03-21T08:51:31;96328.03;;;10.95;59.92
10476;BME280;26166;48.264;11.436;2023-03-21T08:54:32;96331.50;;;10.96;59.89
10476;BME280;26166;48.264;11.436;2023-03-21T08:57:32;96331.50;;;10.96;59.87
10476;BME280;26166;48.264;11.436;2023-03-21T09:00:33;96326.22;;;10.96;59.95
10476;BME280;26166;48.264;11.436;2023-03-21T09:03:33;96320.97;;;10.96;60.16
10476;BME280;26166;48.264;11.436;2023-03-21T09:06:33;96324.59;;;10.95;60.20
10476;BME280;26166;48.264;11.436;2023-03-21T09:09:33;96322.78;;;10.95;60.15
10476;BME280;26166;48.264;11.436;2023-03-21T09:12:34;96322.59;;;10.97;59.74
10476;BME280;26166;48.264;11.436;2023-03-21T09:15:34;96325.09;;;10.98;59.57
10476;BME280;26166;48.264;11.436;2023-03-21T09:18:35;96324.09;;;10.99;59.99
10476;BME280;26166;48.264;11.436;2023-03-21T09:21:46;96326.72;;;10.99;59.58
10476;BME280;26166;48.264;11.436;2023-03-21T09:24:46;96314.56;;;10.98;59.68
10476;BME280;26166;48.264;11.436;2023-03-21T09:27:48;96323.09;;;11.00;59.95
10476;BME280;26166;48.264;11.436;2023-03-21T09:30:48;96326.72;;;10.99;59.60
10476;BME280;26166;48.264;11.436;2023-03-21T09:33:49;96315.41;;;10.99;59.89
10476;BME280;26166;48.264;11.436;2023-03-21T09:36:50;96322.28;;;11.00;59.41
10476;BME280;26166;48.264;11.436;2023-03-21T09:39:53;96320.28;;;11.02;59.52
10476;BME280;26166;48.264;11.436;2023-03-21T09:46:02;96311.78;;;11.00;59.01
10476;BME280;26166;48.264;11.436;2023-03-21T09:49:17;96314.22;;;11.01;59.22
10476;BME280;26166;48.264;11.436;2023-03-21T09:52:38;96313.25;;;11.02;59.47
10476;BME280;26166;48.264;11.436;2023-03-21T09:55:42;96303.72;;;11.01;59.10
10476;BME280;26166;48.264;11.436;2023-03-21T09:58:44;96304.53;;;11.02;59.00
10476;BME280;26166;48.264;11.436;2023-03-21T10:01:49;96303.56;;;11.03;59.00
10476;BME280;26166;48.264;11.436;2023-03-21T10:04:50;96297.31;;;11.04;58.61
10476;BME280;26166;48.264;11.436;2023-03-21T10:10:52;96295.66;;;11.03;58.73
10476;BME280;26166;48.264;11.436;2023-03-21T10:13:55;96295.66;;;11.03;58.71
10476;BME280;26166;48.264;11.436;2023-03-21T10:16:57;96296.50;;;11.03;58.89
10476;BME280;26166;48.264;11.436;2023-03-21T10:20:18;96290.41;;;11.03;58.68
10476;BME280;26166;48.264;11.436;2023-03-21T10:23:21;96284.16;;;11.04;58.60
10476;BME280;26166;48.264;11.436;2023-03-21T10:26:23;96282.34;;;11.04;58.75
10476;BME280;26166;48.264;11.436;2023-03-21T10:29:26;96286.63;;;11.05;58.67
10476;BME280;26166;48.264;11.436;2023-03-21T10:32:27;96269.84;;;11.06;58.96
10476;BME280;26166;48.264;11.436;2023-03-21T10:35:27;96271.50;;;11.07;58.41
10476;BME280;26166;48.264;11.436;2023-03-21T10:38:29;96265.44;;;11.07;57.87
10476;BME280;26166;48.264;11.436;2023-03-21T10:41:30;96269.03;;;11.06;58.02
10476;BME280;26166;48.264;11.436;2023-03-21T10:44:31;96261.81;;;11.08;57.98
10476;BME280;26166;48.264;11.436;2023-03-21T10:47:32;96257.19;;;11.10;58.08
10476;BME280;26166;48.264;11.436;2023-03-21T10:50:32;96259.00;;;11.09;58.26
10476;BME280;26166;48.264;11.436;2023-03-21T10:53:37;96255.38;;;11.10;57.92
10476;BME280;26166;48.264;11.436;2023-03-21T10:56:39;96261.44;;;11.11;57.97
10476;BME280;26166;48.264;11.436;2023-03-21T10:59:52;96258.81;;;11.11;58.29
10476;BME280;26166;48.264;11.436;2023-03-21T11:02:54;96250.13;;;11.10;58.31
10476;BME280;26166;48.264;11.436;2023-03-21T11:06:01;96251.78;;;11.11;58.22
10476;BME280;26166;48.264;11.436;2023-03-21T11:09:07;96248.97;;;11.13;58.25
10476;BME280;26166;48.264;11.436;2023-03-21T11:12:09;96237.47;;;11.14;57.92
10476;BME280;26166;48.264;11.436;2023-03-21T11:18:20;96235.66;;;11.15;58.13
10476;BME280;26166;48.264;11.436;2023-03-21T11:21:21;96234.84;;;11.14;57.71
10476;BME280;26166;48.264;11.436;2023-03-21T11:24:27;96224.31;;;11.14;57.83
10476;BME280;26166;48.264;11.436;2023-03-21T11:27:29;96226.94;;;11.14;57.98
10476;BME280;26166;48.264;11.436;2023-03-21T11:30:30;96221.53;;;11.16;57.77
10476;BME280;26166;48.264;11.436;2023-03-21T11:33:33;96217.91;;;11.17;58.13
10476;BME280;26166;48.264;11.436;2023-03-21T11:36:36;96212.66;;;11.17;57.91
10476;BME280;26166;48.264;11.436;2023-03-21T11:39:38;96209.03;;;11.18;57.97
10476;BME280;26166;48.264;11.436;2023-03-21T11:42:44;96205.59;;;11.17;58.25
10476;BME280;26166;48.264;11.436;2023-03-21T11:48:58;96195.69;;;11.19;57.91
10476;BME280;26166;48.264;11.436;2023-03-21T11:52:05;96185.19;;;11.19;57.61
10476;BME280;26166;48.264;11.436;2023-03-21T11:58:32;96183.56;;;11.18;58.00
10476;BME280;26166;48.264;11.436;2023-03-21T12:14:30;96162.19;;;11.21;57.55
10476;BME280;26166;48.264;11.436;2023-03-21T12:20:43;96143.41;;;11.24;57.77
10476;BME280;26166;48.264;11.436;2023-03-21T12:29:58;96136.53;;;11.23;57.73
10476;BME280;26166;48.264;11.436;2023-03-21T12:39:26;96126.66;;;11.25;57.40
10476;BME280;26166;48.264;11.436;2023-03-21T12:45:33;96122.38;;;11.24;57.73
10476;BME280;26166;48.264;11.436;2023-03-21T12:48:37;96126.66;;;11.25;57.64
10476;BME280;26166;48.264;11.436;2023-03-21T12:51:41;96126.66;;;11.25;57.66
10476;BME280;26166;48.264;11.436;2023-03-21T12:57:51;96121.03;;;11.28;57.55
10476;BME280;26166;48.264;11.436;2023-03-21T13:00:54;96114.81;;;11.29;57.54
10476;BME280;26166;48.264;11.436;2023-03-21T13:04:03;96108.56;;;11.30;57.47
10476;BME280;26166;48.264;11.436;2023-03-21T13:07:06;96109.84;;;11.34;57.38
10476;BME280;26166;48.264;11.436;2023-03-21T13:10:17;96100.94;;;11.35;56.89
10476;BME280;26166;48.264;11.436;2023-03-21T13:16:29;96093.06;;;11.35;56.67
10476;BME280;26166;48.264;11.436;2023-03-21T13:22:35;96080.91;;;11.34;56.93
10476;BME280;26166;48.264;11.436;2023-03-21T13:25:40;96087.19;;;11.33;57.05
10476;BME280;26166;48.264;11.436;2023-03-21T13:28:41;96083.69;;;11.33;57.20
10476;BME280;26166;48.264;11.436;2023-03-21T13:31:46;96069.06;;;11.39;56.95
10476;BME280;26166;48.264;11.436;2023-03-21T13:34:52;96070.91;;;11.53;56.28
10476;BME280;26166;48.264;11.436;2023-03-21T13:37:57;96072.41;;;11.70;56.08
10476;BME280;26166;48.264;11.436;2023-03-21T13:40:58;96075.31;;;11.75;55.40
10476;BME280;26166;48.264;11.436;2023-03-21T13:47:21;96067.66;;;11.89;55.48
10476;BME280;26166;48.264;11.436;2023-03-21T13:50:23;96061.66;;;11.95;55.18
10476;BME280;26166;48.264;11.436;2023-03-21T13:53:29;96049.31;;;11.95;54.99
10476;BME280;26166;48.264;11.436;2023-03-21T13:56:53;96055.16;;;12.05;54.84
10476;BME280;26166;48.264;11.436;2023-03-21T14:00:12;96056.44;;;12.09;54.79
10476;BME280;26166;48.264;11.436;2023-03-21T14:03:12;96056.44;;;12.09;54.70
10476;BME280;26166;48.264;11.436;2023-03-21T14:06:16;96053.00;;;12.09;54.46
10476;BME280;26166;48.264;11.436;2023-03-21T14:09:20;96049.09;;;12.05;54.31
10476;BME280;26166;48.264;11.436;2023-03-21T14:12:23;96050.91;;;12.04;54.41
10476;BME280;26166;48.264;11.436;2023-03-21T14:15:24;96046.72;;;12.10;54.35
10476;BME280;26166;48.264;11.436;2023-03-21T14:18:27;96043.63;;;12.06;54.53
10476;BME280;26166;48.264;11.436;2023-03-21T14:21:28;96038.34;;;12.06;54.05
10476;BME280;26166;48.264;11.436;2023-03-21T14:24:29;96041.00;;;12.06;54.08
10476;BME280;26166;48.264;11.436;2023-03-21T14:27:30;96037.91;;;12.03;54.04
10476;BME280;26166;48.264;11.436;2023-03-21T14:30:32;96040.91;;;12.00;54.32
10476;BME280;26166;48.264;11.436;2023-03-21T14:33:40;96031.75;;;11.96;54.50
10476;BME280;26166;48.264;11.436;2023-03-21T14:36:42;96026.63;;;11.94;54.77
10476;BME280;26166;48.264;11.436;2023-03-21T14:39:43;96026.28;;;11.97;54.87
10476;BME280;26166;48.264;11.436;2023-03-21T14:42:45;96023.28;;;12.00;54.58
10476;BME280;26166;48.264;11.436;2023-03-21T14:45:49;96023.91;;;12.02;54.45
10476;BME280;26166;48.264;11.436;2023-03-21T14:48:51;96016.03;;;12.02;54.42
10476;BME280;26166;48.264;11.436;2023-03-21T14:51:52;96021.47;;;12.01;54.90
10476;BME280;26166;48.264;11.436;2023-03-21T14:54:54;96017.84;;;12.02;54.56
10476;BME280;26166;48.264;11.436;2023-03-21T14:57:55;96014.59;;;12.00;54.72
10476;BME280;26166;48.264;11.436;2023-03-21T15:01:02;96016.22;;;12.01;54.92
10476;BME280;26166;48.264;11.436;2023-03-21T15:04:03;96012.94;;;11.99;54.71
10476;BME280;26166;48.264;11.436;2023-03-21T15:07:05;96002.94;;;11.94;54.89
10476;BME280;26166;48.264;11.436;2023-03-21T15:10:15;96010.84;;;11.94;55.29
10476;BME280;26166;48.264;11.436;2023-03-21T15:13:19;96005.97;;;11.91;55.50
10476;BME280;26166;48.264;11.436;2023-03-21T15:16:21;96001.84;;;11.89;55.13
10476;BME280;26166;48.264;11.436;2023-03-21T15:19:32;96003.88;;;11.86;55.43
10476;BME280;26166;48.264;11.436;2023-03-21T15:22:35;95996.94;;;11.85;55.56
10476;BME280;26166;48.264;11.436;2023-03-21T15:25:37;96003.22;;;11.84;55.33
10476;BME280;26166;48.264;11.436;2023-03-21T15:28:38;95995.31;;;11.84;55.39
10476;BME280;26166;48.264;11.436;2023-03-21T15:31:39;95999.59;;;11.85;55.42
10476;BME280;26166;48.264;11.436;2023-03-21T15:34:39;96004.84;;;11.85;55.73
10476;BME280;26166;48.264;11.436;2023-03-21T15:37:40;95998.59;;;11.86;55.64
10476;BME280;26166;48.264;11.436;2023-03-21T15:40:40;95994.97;;;11.88;55.42
10476;BME280;26166;48.264;11.436;2023-03-21T15:43:40;95996.59;;;11.89;55.60
10476;BME280;26166;48.264;11.436;2023-03-21T15:46:42;95987.06;;;11.88;55.61
10476;BME280;26166;48.264;11.436;2023-03-21T15:49:42;95991.69;;;11.85;55.48
10476;BME280;26166;48.264;11.436;2023-03-21T15:52:43;95983.16;;;11.83;55.90
10476;BME280;26166;48.264;11.436;2023-03-21T15:55:47;95986.94;;;11.81;55.61
10476;BME280;26166;48.264;11.436;2023-03-21T15:58:50;95987.94;;;11.80;55.92
10476;BME280;26166;48.264;11.436;2023-03-21T16:01:51;95990.75;;;11.78;55.62
10476;BME280;26166;48.264;11.436;2023-03-21T16:08:05;96001.63;;;11.75;55.91
10476;BME280;26166;48.264;11.436;2023-03-21T16:11:17;95999.19;;;11.74;55.94
10476;BME280;26166;48.264;11.436;2023-03-21T16:14:18;95997.72;;;11.71;56.36
10476;BME280;26166;48.264;11.436;2023-03-21T16:17:27;96004.63;;;11.72;56.10
10476;BME280;26166;48.264;11.436;2023-03-21T16:20:33;96000.38;;;11.71;56.14
10476;BME280;26166;48.264;11.436;2023-03-21T16:23:33;96000.38;;;11.71;56.06
10476;BME280;26166;48.264;11.436;2023-03-21T16:26:37;96005.63;;;11.71;56.12
10476;BME280;26166;48.264;11.436;2023-03-21T16:29:40;96005.63;;;11.71;56.35
10476;BME280;26166;48.264;11.436;2023-03-21T16:32:41;96001.38;;;11.70;56.32
10476;BME280;26166;48.264;11.436;2023-03-21T16:35:41;96011.88;;;11.70;56.30
10476;BME280;26166;48.264;11.436;2023-03-21T16:38:42;96009.25;;;11.70;56.59
10476;BME280;26166;48.264;11.436;2023-03-21T16:41:42;96007.63;;;11.69;56.73
10476;BME280;26166;48.264;11.436;2023-03-21T16:44:42;96008.44;;;11.70;56.52
10476;BME280;26166;48.264;11.436;2023-03-21T16:47:43;96007.63;;;11.69;56.52
10476;BME280;26166;48.264;11.436;2023-03-21T16:50:47;96008.59;;;11.68;56.77
10476;BME280;26166;48.264;11.436;2023-03-21T16:53:47;96012.44;;;11.66;56.59
10476;BME280;26166;48.264;11.436;2023-03-21T16:56:53;96018.50;;;11.66;56.52
10476;BME280;26166;48.264;11.436;2023-03-21T16:59:54;96018.03;;;11.62;56.67
10476;BME280;26166;48.264;11.436;2023-03-21T17:02:55;96016.59;;;11.60;57.08
10476;BME280;26166;48.264;11.436;2023-03-21T17:05:58;96012.31;;;11.59;56.71
10476;BME280;26166;48.264;11.436;2023-03-21T17:08:59;96013.50;;;11.56;57.01
10476;BME280;26166;48.264;11.436;2023-03-21T17:12:00;96011.03;;;11.55;56.88
10476;BME280;26166;48.264;11.436;2023-03-21T17:15:01;96017.75;;;11.57;56.82
10476;BME280;26166;48.264;11.436;2023-03-21T17:18:02;96020.47;;;11.64;56.88
10476;BME280;26166;48.264;11.436;2023-03-21T17:21:08;96017.78;;;11.72;57.18